createdAt,value
2024-01-15T00:02:11.533Z,21.50
2024-01-15T00:04:42.772Z,22.43
2024-01-15T00:07:11.510Z,24.77
2024-01-15T00:09:39.239Z,23.80
2024-01-15T00:12:09.481Z,23.90
2024-01-15T00:14:37.176Z,23.37
2024-01-15T00:17:05.069Z,24.53
2024-01-15T00:19:33.429Z,25.97
2024-01-15T00:22:01.432Z,25.13
2024-01-15T00:24:29.237Z,26.00
2024-01-15T00:26:57.113Z,25.70
2024-01-15T00:29:26.734Z,26.43
2024-01-15T00:31:54.435Z,26.67
2024-01-15T00:34:22.204Z,24.90
2024-01-15T00:36:49.973Z,26.40
2024-01-15T00:39:18.495Z,29.37
2024-01-15T00:41:46.258Z,25.77
2024-01-15T00:44:13.929Z,28.30
2024-01-15T00:46:47.797Z,25.40
2024-01-15T00:49:15.865Z,24.43
2024-01-15T00:51:44.032Z,24.20
2024-01-15T00:54:13.160Z,25.73
2024-01-15T00:56:41.091Z,25.10
2024-01-15T00:59:11.359Z,25.20
2024-01-15T01:01:39.424Z,27.80
2024-01-15T01:04:08.578Z,24.40
2024-01-15T01:06:36.332Z,24.50
2024-01-15T01:09:04.388Z,24.13
2024-01-15T01:11:32.114Z,24.20
2024-01-15T01:13:59.824Z,24.07
2024-01-15T01:16:27.472Z,26.83
2024-01-15T01:18:55.405Z,24.63
2024-01-15T01:21:24.549Z,27.23
2024-01-15T01:23:52.256Z,26.07
2024-01-15T01:26:20.055Z,24.43
2024-01-15T01:28:47.694Z,24.20
2024-01-15T01:31:15.534Z,23.90
2024-01-15T01:33:43.434Z,27.23
2024-01-15T01:36:11.719Z,25.93
2024-01-15T01:38:42.220Z,27.10
2024-01-15T01:41:09.914Z,23.70
2024-01-15T01:43:37.766Z,24.27
2024-01-15T01:46:06.517Z,24.40
2024-01-15T01:48:34.528Z,25.30
2024-01-15T01:51:05.139Z,24.00
2024-01-15T01:53:36.076Z,25.73
2024-01-15T01:56:05.822Z,24.70
2024-01-15T01:58:35.580Z,27.53
2024-01-15T02:01:03.471Z,25.77
2024-01-15T02:03:32.935Z,25.87
2024-01-15T02:06:02.160Z,25.97
2024-01-15T02:08:29.929Z,24.00
2024-01-15T02:10:57.595Z,23.87
2024-01-15T02:13:26.713Z,24.37
2024-01-15T02:15:54.356Z,24.53
2024-01-15T02:18:22.343Z,25.73
2024-01-15T02:20:50.107Z,29.93
2024-01-15T02:23:19.150Z,27.33
2024-01-15T02:25:48.667Z,27.10
2024-01-15T02:28:18.259Z,27.47
2024-01-15T02:30:46.473Z,25.67
2024-01-15T02:33:14.866Z,26.63
2024-01-15T02:35:42.937Z,28.40
2024-01-15T02:38:10.788Z,24.37
2024-01-15T02:40:40.792Z,26.10
2024-01-15T02:43:08.500Z,29.57
2024-01-15T02:45:36.288Z,25.20
2024-01-15T02:48:04.206Z,23.10
2024-01-15T02:50:31.896Z,23.00
2024-01-15T02:52:59.573Z,23.17
2024-01-15T02:55:27.184Z,25.30
2024-01-15T02:57:56.172Z,23.07
2024-01-15T03:00:23.899Z,24.17
2024-01-15T03:02:53.054Z,24.07
2024-01-15T03:05:21.297Z,26.27
2024-01-15T03:07:48.986Z,24.93
2024-01-15T03:10:16.912Z,23.47
2024-01-15T03:12:44.601Z,23.87
2024-01-15T03:15:14.182Z,23.70
2024-01-15T03:17:43.712Z,24.10
2024-01-15T03:20:12.682Z,24.63
2024-01-15T03:22:40.458Z,26.10
2024-01-15T03:25:09.121Z,25.10
2024-01-15T03:27:36.952Z,26.00
2024-01-15T03:30:05.102Z,23.63
2024-01-15T03:32:34.327Z,28.73
2024-01-15T03:35:02.549Z,23.53
2024-01-15T03:37:30.187Z,23.37
2024-01-15T03:39:58.010Z,26.33
2024-01-15T03:42:25.765Z,25.70
2024-01-15T03:44:53.628Z,23.93
2024-01-15T03:47:21.373Z,26.57
2024-01-15T03:49:50.541Z,29.60
2024-01-15T03:52:18.291Z,23.80
2024-01-15T03:54:45.962Z,25.67
2024-01-15T03:57:13.699Z,24.37
2024-01-15T03:59:42.630Z,24.93
2024-01-15T04:02:10.390Z,24.10
2024-01-15T04:04:38.105Z,25.80
2024-01-15T04:07:07.297Z,25.97
2024-01-15T04:09:34.996Z,25.67
2024-01-15T04:12:02.710Z,26.50
2024-01-15T04:14:30.740Z,24.80
2024-01-15T04:16:58.393Z,26.03
2024-01-15T04:19:26.060Z,24.73
2024-01-15T04:21:53.746Z,26.10
2024-01-15T04:24:22.847Z,25.63
2024-01-15T04:26:50.550Z,23.10
2024-01-15T04:29:18.223Z,23.90
2024-01-15T04:31:46.059Z,24.93
2024-01-15T04:34:13.885Z,24.30
2024-01-15T04:36:42.520Z,24.73
2024-01-15T04:39:10.317Z,24.63
2024-01-15T04:41:39.578Z,26.10
2024-01-15T04:44:07.193Z,27.27
2024-01-15T04:46:35.143Z,26.27
2024-01-15T04:49:03.504Z,24.43
2024-01-15T04:51:31.725Z,24.63
2024-01-15T04:53:59.365Z,24.80
2024-01-15T04:56:27.016Z,24.67
2024-01-15T04:58:56.034Z,26.30
2024-01-15T05:01:23.759Z,25.10
2024-01-15T05:03:51.652Z,24.10
2024-01-15T05:06:19.622Z,24.70
2024-01-15T05:08:47.392Z,22.70
2024-01-15T05:11:15.016Z,22.90
2024-01-15T05:13:42.624Z,23.03
2024-01-15T05:16:11.614Z,21.47
2024-01-15T05:18:39.505Z,25.50
2024-01-15T05:21:07.374Z,23.33
2024-01-15T05:23:35.108Z,24.83
2024-01-15T05:26:02.889Z,25.10
2024-01-15T05:28:30.662Z,25.77
2024-01-15T05:30:58.518Z,24.93
2024-01-15T05:33:27.645Z,25.53
2024-01-15T05:35:55.772Z,24.93
2024-01-15T05:38:23.478Z,26.27
2024-01-15T05:40:51.113Z,25.23
2024-01-15T05:43:18.714Z,24.20
2024-01-15T05:45:46.690Z,25.03
2024-01-15T05:48:14.771Z,26.73
2024-01-15T05:50:44.084Z,27.27
2024-01-15T05:53:11.810Z,25.80
2024-01-15T05:55:39.659Z,25.53
2024-01-15T05:58:07.365Z,25.93
2024-01-15T06:00:36.545Z,25.40
2024-01-15T06:03:04.588Z,24.50
2024-01-15T06:05:32.308Z,25.77
2024-01-15T06:08:01.316Z,25.60
2024-01-15T06:10:28.902Z,24.60
2024-01-15T06:12:56.551Z,25.70
2024-01-15T06:15:24.278Z,24.90
2024-01-15T06:17:52.000Z,26.00
2024-01-15T06:20:19.609Z,26.83
2024-01-15T06:22:47.291Z,24.70
2024-01-15T06:25:16.357Z,25.00
2024-01-15T06:27:44.044Z,24.80
2024-01-15T06:30:13.491Z,25.13
2024-01-15T06:32:41.682Z,24.47
2024-01-15T06:35:11.628Z,25.70
2024-01-15T06:37:39.576Z,24.70
2024-01-15T06:40:09.134Z,26.00
2024-01-15T06:42:38.331Z,25.00
2024-01-15T06:45:07.197Z,25.70
2024-01-15T06:47:34.936Z,26.27
2024-01-15T06:50:02.700Z,25.30
2024-01-15T06:52:30.377Z,24.77
2024-01-15T06:54:58.028Z,26.80
2024-01-15T06:57:25.702Z,25.70
2024-01-15T06:59:54.705Z,24.97
2024-01-15T07:02:22.563Z,24.43
2024-01-15T07:04:50.162Z,24.40
2024-01-15T07:07:18.100Z,23.93
2024-01-15T07:09:45.801Z,23.27
2024-01-15T07:12:13.557Z,23.53
2024-01-15T07:14:41.196Z,23.43
2024-01-15T07:17:10.228Z,23.37
2024-01-15T07:19:38.035Z,24.33
2024-01-15T07:22:06.212Z,23.47
2024-01-15T07:24:35.322Z,25.17
2024-01-15T07:27:03.151Z,25.23
2024-01-15T07:29:30.904Z,24.83
2024-01-15T07:31:58.631Z,23.90
2024-01-15T07:34:27.872Z,24.37
2024-01-15T07:36:55.649Z,24.00
2024-01-15T07:39:24.013Z,24.10
2024-01-15T07:41:51.737Z,23.87
2024-01-15T07:44:19.567Z,24.10
2024-01-15T07:46:47.468Z,22.50
2024-01-15T07:49:15.610Z,22.97
2024-01-15T07:51:45.132Z,23.67
2024-01-15T07:54:13.442Z,22.00
2024-01-15T07:56:55.964Z,22.50
2024-01-15T07:59:23.620Z,24.17
2024-01-15T08:01:51.323Z,24.23
2024-01-15T08:04:19.383Z,23.37
2024-01-15T08:06:48.476Z,23.50
2024-01-15T08:09:16.883Z,24.10
2024-01-15T08:11:45.442Z,22.43
2024-01-15T08:14:14.441Z,23.23
2024-01-15T08:16:42.423Z,21.67
2024-01-15T08:19:10.288Z,22.83
2024-01-15T08:21:38.108Z,23.00
2024-01-15T08:24:07.848Z,22.50
2024-01-15T08:26:35.560Z,21.50
2024-01-15T08:29:03.176Z,21.97
2024-01-15T08:31:31.136Z,21.60
2024-01-15T08:34:00.543Z,21.10
2024-01-15T08:36:28.304Z,22.00
2024-01-15T08:38:56.232Z,21.27
2024-01-15T08:41:25.775Z,22.97
2024-01-15T08:43:54.079Z,21.73
2024-01-15T08:46:21.730Z,22.27
2024-01-15T08:48:49.707Z,21.60
2024-01-15T08:51:17.558Z,20.33
2024-01-15T08:53:45.241Z,19.90
2024-01-15T08:56:12.990Z,20.97
2024-01-15T08:58:41.912Z,20.10
2024-01-15T09:01:09.825Z,21.73
2024-01-15T09:03:38.132Z,20.67
2024-01-15T09:06:06.444Z,18.83
2024-01-15T09:08:34.105Z,19.87
2024-01-15T09:11:03.926Z,18.30
2024-01-15T09:13:31.855Z,18.07
2024-01-15T09:16:02.219Z,18.70
2024-01-15T09:18:30.770Z,17.40
2024-01-15T09:20:58.589Z,19.17
2024-01-15T09:23:28.785Z,21.00
2024-01-15T09:25:57.038Z,20.50
2024-01-15T09:28:24.648Z,20.83
2024-01-15T09:30:52.308Z,19.70
2024-01-15T09:33:21.423Z,22.30
2024-01-15T09:35:49.136Z,20.53
2024-01-15T09:38:16.792Z,19.90
2024-01-15T09:40:47.467Z,20.30
2024-01-15T09:43:16.771Z,19.47
2024-01-15T09:45:45.115Z,18.57
2024-01-15T09:48:13.831Z,18.47
2024-01-15T09:50:42.915Z,18.10
2024-01-15T09:53:11.918Z,18.57
2024-01-15T09:55:39.793Z,18.20
2024-01-15T09:58:07.567Z,18.53
2024-01-15T10:00:38.057Z,18.43
2024-01-15T10:03:07.615Z,18.77
2024-01-15T10:05:35.358Z,19.77
2024-01-15T10:08:06.455Z,18.80
2024-01-15T10:10:34.059Z,17.80
2024-01-15T10:13:02.232Z,17.33
2024-01-15T10:15:30.106Z,17.47
2024-01-15T10:17:57.926Z,17.57
2024-01-15T10:20:25.623Z,17.60
2024-01-15T10:22:53.375Z,18.13
2024-01-15T10:25:27.248Z,18.20
2024-01-15T10:28:02.272Z,18.57
2024-01-15T10:30:30.393Z,18.27
2024-01-15T10:33:02.447Z,17.90
2024-01-15T10:35:32.021Z,17.23
2024-01-15T10:38:00.319Z,17.83
2024-01-15T10:40:30.746Z,18.13
2024-01-15T10:42:58.582Z,18.13
2024-01-15T10:45:26.844Z,18.23
2024-01-15T10:47:59.997Z,18.10
2024-01-15T10:50:27.853Z,19.77
2024-01-15T10:52:56.010Z,18.73
2024-01-15T10:55:26.220Z,18.90
2024-01-15T10:57:57.796Z,19.33
2024-01-15T11:00:26.474Z,18.27
2024-01-15T11:02:56.666Z,19.30
2024-01-15T11:05:24.758Z,18.77
2024-01-15T11:07:52.373Z,18.73
2024-01-15T11:10:42.673Z,19.87
2024-01-15T11:13:12.711Z,18.10
2024-01-15T11:15:57.466Z,19.07
2024-01-15T11:18:25.308Z,19.47
2024-01-15T11:21:26.081Z,19.70
2024-01-15T11:23:58.020Z,20.77
2024-01-15T11:26:39.805Z,20.23
2024-01-15T11:29:10.398Z,20.63
2024-01-15T11:32:00.884Z,20.47
2024-01-15T11:34:54.927Z,19.77
2024-01-15T11:37:24.654Z,19.83
2024-01-15T11:39:53.847Z,19.97
2024-01-15T11:42:23.592Z,20.27
2024-01-15T11:44:52.969Z,20.50
2024-01-15T11:47:49.132Z,20.00
2024-01-15T11:50:16.827Z,19.87
2024-01-15T11:52:52.317Z,19.40
2024-01-15T11:55:24.259Z,19.13
2024-01-15T11:57:53.456Z,18.30
2024-01-15T12:00:24.053Z,19.27
2024-01-15T12:02:52.513Z,19.73
2024-01-15T12:05:22.258Z,20.27
2024-01-15T12:07:51.459Z,20.00
2024-01-15T12:10:21.704Z,21.53
2024-01-15T12:12:59.234Z,20.10
2024-01-15T12:15:30.460Z,20.50
2024-01-15T12:17:59.674Z,20.30
2024-01-15T12:20:27.836Z,18.80
2024-01-15T12:23:01.420Z,20.07
2024-01-15T12:25:32.128Z,21.37
2024-01-15T12:28:00.957Z,20.90
2024-01-15T12:30:32.810Z,20.07
2024-01-15T12:33:03.649Z,20.37
2024-01-15T12:35:31.569Z,20.13
2024-01-15T12:37:59.247Z,19.90
2024-01-15T12:40:26.848Z,20.03
2024-01-15T12:42:54.664Z,20.03
2024-01-15T12:45:22.474Z,21.03
2024-01-15T12:47:52.486Z,20.53
2024-01-15T12:50:21.131Z,20.50
2024-01-15T12:52:49.536Z,21.57
2024-01-15T12:55:18.377Z,19.00
2024-01-15T12:57:46.999Z,20.80
2024-01-15T13:00:16.214Z,22.03
2024-01-15T13:02:45.242Z,20.60
2024-01-15T13:05:15.808Z,20.83
2024-01-15T13:07:45.063Z,21.37
2024-01-15T13:10:13.639Z,20.10
2024-01-15T13:12:43.081Z,20.77
2024-01-15T13:15:13.942Z,21.53
2024-01-15T13:17:43.098Z,20.77
2024-01-15T13:20:12.347Z,19.30
2024-01-15T13:22:44.714Z,18.90
2024-01-15T13:25:12.566Z,18.90
2024-01-15T13:27:40.639Z,19.10
2024-01-15T13:30:11.585Z,19.70
2024-01-15T13:32:39.327Z,20.00
2024-01-15T13:35:10.613Z,18.70
2024-01-15T13:37:39.020Z,18.40
2024-01-15T13:40:10.714Z,18.60
2024-01-15T13:42:39.317Z,19.20
2024-01-15T13:45:08.589Z,18.10
2024-01-15T13:47:36.438Z,18.70
2024-01-15T13:50:05.001Z,19.40
2024-01-15T13:52:32.782Z,19.60
2024-01-15T13:55:00.605Z,19.43
2024-01-15T13:57:29.599Z,19.60
2024-01-15T13:59:57.234Z,19.60
2024-01-15T14:02:25.258Z,19.23
2024-01-15T14:04:55.200Z,20.93
2024-01-15T14:07:22.909Z,18.83
2024-01-15T14:09:50.745Z,22.33
2024-01-15T14:12:18.505Z,20.30
2024-01-15T14:14:48.902Z,20.10
2024-01-15T14:17:16.536Z,19.47
2024-01-15T14:19:44.369Z,19.30
2024-01-15T14:22:12.121Z,19.50
2024-01-15T14:24:40.094Z,19.70
2024-01-15T14:27:08.258Z,19.80
2024-01-15T14:29:36.813Z,19.93
2024-01-15T14:32:06.204Z,21.07
2024-01-15T14:34:34.038Z,20.90
2024-01-15T14:37:02.088Z,27.47
2024-01-15T14:39:29.778Z,19.80
2024-01-15T14:41:57.978Z,18.57
2024-01-15T14:44:26.069Z,20.80
2024-01-15T14:46:53.821Z,20.20
2024-01-15T14:49:22.911Z,19.57
2024-01-15T14:51:51.114Z,18.37
2024-01-15T14:54:19.598Z,20.53
2024-01-15T14:56:48.173Z,19.80
2024-01-15T14:59:15.830Z,20.50
2024-01-15T15:01:44.070Z,17.93
2024-01-15T15:04:12.267Z,19.93
2024-01-15T15:06:41.443Z,20.07
2024-01-15T15:09:11.072Z,21.90
2024-01-15T15:11:38.860Z,21.00
2024-01-15T15:14:06.536Z,20.37
2024-01-15T15:16:34.267Z,19.33
2024-01-15T15:19:02.410Z,19.27
2024-01-15T15:21:30.681Z,19.97
2024-01-15T15:24:01.418Z,25.20
2024-01-15T15:26:29.136Z,23.63
2024-01-15T15:28:56.826Z,23.23
2024-01-15T15:31:24.517Z,22.47
2024-01-15T15:33:52.500Z,21.30
2024-01-15T15:36:20.453Z,20.70
2024-01-15T15:38:48.623Z,20.77
2024-01-15T15:41:17.642Z,20.73
2024-01-15T15:43:45.327Z,21.93
2024-01-15T15:46:12.993Z,21.03
2024-01-15T15:48:41.020Z,33.83
2024-01-15T15:51:08.770Z,25.27
2024-01-15T15:53:36.454Z,23.20
2024-01-15T15:56:04.900Z,22.47
2024-01-15T15:58:33.919Z,23.70
2024-01-15T16:01:01.901Z,23.13
2024-01-15T16:03:29.885Z,22.20
2024-01-15T16:05:57.591Z,23.60
2024-01-15T16:08:25.277Z,24.50
2024-01-15T16:10:53.618Z,22.27
2024-01-15T16:13:21.681Z,21.40
2024-01-15T16:15:51.081Z,21.87
2024-01-15T16:23:20.454Z,21.53
2024-01-15T16:23:35.076Z,21.20
2024-01-15T16:24:12.506Z,21.23
2024-01-15T16:26:43.348Z,20.20
2024-01-15T16:29:11.363Z,20.60
2024-01-15T16:31:40.820Z,20.93
2024-01-15T16:34:09.968Z,19.97
2024-01-15T16:36:39.793Z,20.00
2024-01-15T16:39:07.893Z,20.70
2024-01-15T16:41:35.910Z,19.60
2024-01-15T16:44:03.704Z,21.20
2024-01-15T16:46:31.467Z,18.90
2024-01-15T16:49:03.045Z,19.40
2024-01-15T16:51:31.080Z,21.00
2024-01-15T16:53:59.459Z,23.67
2024-01-15T16:56:27.353Z,24.10
2024-01-15T16:58:57.258Z,23.23
2024-01-15T17:01:25.132Z,23.03
2024-01-15T17:03:53.410Z,20.20
2024-01-15T17:06:22.972Z,22.00
2024-01-15T17:08:50.560Z,21.30
2024-01-15T17:11:18.411Z,21.57
2024-01-15T17:13:46.073Z,20.90
2024-01-15T17:16:13.756Z,19.83
2024-01-15T17:18:41.632Z,20.03
2024-01-15T17:21:09.482Z,20.63
2024-01-15T17:23:39.374Z,21.63
2024-01-15T17:26:07.098Z,21.50
2024-01-15T17:28:35.206Z,20.83
2024-01-15T17:31:03.450Z,20.33
2024-01-15T17:33:31.253Z,19.77
2024-01-15T17:36:00.211Z,19.20
2024-01-15T17:38:28.001Z,20.00
2024-01-15T17:40:57.014Z,19.50
2024-01-15T17:43:24.999Z,18.57
2024-01-15T17:45:54.540Z,19.63
2024-01-15T17:48:22.348Z,18.37
2024-01-15T17:50:50.165Z,17.70
2024-01-15T17:53:18.093Z,19.40
2024-01-15T17:55:45.825Z,20.80
2024-01-15T17:58:14.797Z,19.30
2024-01-15T18:00:42.440Z,18.90
2024-01-15T18:03:10.105Z,18.90
2024-01-15T18:05:37.818Z,18.73
2024-01-15T18:08:05.885Z,19.87
2024-01-15T18:10:33.554Z,19.17
2024-01-15T18:13:01.327Z,19.17
2024-01-15T18:15:30.341Z,18.37
2024-01-15T18:17:58.180Z,19.87
2024-01-15T18:20:26.078Z,19.77
2024-01-15T18:22:54.646Z,18.37
2024-01-15T18:25:22.537Z,19.77
2024-01-15T18:27:50.140Z,19.57
2024-01-15T18:30:18.039Z,20.03
2024-01-15T18:32:47.850Z,19.40
2024-01-15T18:35:15.753Z,20.70
2024-01-15T18:37:47.011Z,19.97
2024-01-15T18:40:14.834Z,19.80
2024-01-15T18:42:42.509Z,21.03
2024-01-15T18:45:10.861Z,20.60
2024-01-15T18:47:38.766Z,19.13
2024-01-15T18:50:09.724Z,20.03
2024-01-15T18:52:37.701Z,19.27
2024-01-15T18:55:05.810Z,20.37
2024-01-15T18:57:33.426Z,19.40
2024-01-15T19:00:01.081Z,20.63
2024-01-15T19:02:28.759Z,19.50
2024-01-15T19:04:57.418Z,20.90
2024-01-15T19:07:26.462Z,20.10
2024-01-15T19:09:54.170Z,20.93
2024-01-15T19:12:21.941Z,21.20
2024-01-15T19:14:49.615Z,21.17
2024-01-15T19:17:17.322Z,22.20
2024-01-15T19:19:50.429Z,23.47
2024-01-15T19:22:18.090Z,23.33
2024-01-15T19:24:47.728Z,22.73
2024-01-15T19:27:15.665Z,23.83
2024-01-15T19:29:43.386Z,23.80
2024-01-15T19:32:12.335Z,24.00
2024-01-15T19:34:40.761Z,23.70
2024-01-15T19:37:08.723Z,23.40
2024-01-15T19:39:36.440Z,22.83
2024-01-15T19:42:05.829Z,22.90
2024-01-15T19:44:33.540Z,23.43
2024-01-15T19:47:01.384Z,22.67
2024-01-15T19:49:29.553Z,23.63
2024-01-15T19:51:57.194Z,27.03
2024-01-15T19:54:25.230Z,23.90
2024-01-15T19:56:52.931Z,24.20
2024-01-15T19:59:21.988Z,23.40
2024-01-15T20:01:49.672Z,23.10
2024-01-15T20:04:17.287Z,24.00
2024-01-15T20:06:44.937Z,23.93
2024-01-15T20:09:13.245Z,23.40
2024-01-15T20:11:41.737Z,22.87
2024-01-15T20:14:09.554Z,23.43
2024-01-15T20:16:39.418Z,22.17
2024-01-15T20:19:07.473Z,24.00
2024-01-15T20:21:36.521Z,22.80
2024-01-15T20:24:04.938Z,23.33
2024-01-15T20:26:32.683Z,24.43
2024-01-15T20:29:00.639Z,24.57
2024-01-15T20:31:29.314Z,23.77
2024-01-15T20:33:58.776Z,24.90
2024-01-15T20:36:27.257Z,26.27
2024-01-15T20:38:55.065Z,24.83
2024-01-15T20:41:22.809Z,24.77
2024-01-15T20:43:50.438Z,23.83
2024-01-15T20:46:18.316Z,23.80
2024-01-15T20:48:46.052Z,25.57
2024-01-15T20:51:16.246Z,23.70
2024-01-15T20:53:44.358Z,26.93
2024-01-15T20:56:12.481Z,26.20
2024-01-15T20:58:40.151Z,28.83
2024-01-15T21:01:08.301Z,25.23
2024-01-15T21:03:36.889Z,23.00
2024-01-15T21:08:34.082Z,22.57
2024-01-15T21:11:04.429Z,24.27
2024-01-15T21:13:34.165Z,24.60
2024-01-15T21:16:02.045Z,26.57
2024-01-15T21:18:29.780Z,26.40
2024-01-15T21:20:57.511Z,24.00
2024-01-15T21:23:25.219Z,25.30
2024-01-15T21:25:56.446Z,24.30
2024-01-15T21:28:25.492Z,24.83
2024-01-15T21:30:53.680Z,23.50
2024-01-15T21:33:21.505Z,24.33
2024-01-15T21:35:49.456Z,24.97
2024-01-15T21:38:17.230Z,24.60
2024-01-15T21:40:44.948Z,27.50
2024-01-15T21:43:13.924Z,24.10
2024-01-15T21:45:41.587Z,24.67
2024-01-15T21:48:09.342Z,26.43
2024-01-15T21:50:37.146Z,25.03
2024-01-15T21:53:05.514Z,24.93
2024-01-15T21:55:33.150Z,24.33
2024-01-15T21:58:01.063Z,25.30
2024-01-15T22:00:30.139Z,28.37
2024-01-15T22:02:57.891Z,27.40
2024-01-15T22:05:25.736Z,28.17
2024-01-15T22:07:53.433Z,27.97
2024-01-15T22:10:21.092Z,27.47
2024-01-15T22:12:48.763Z,27.27
2024-01-15T22:15:16.547Z,28.20
2024-01-15T22:17:45.704Z,27.20
2024-01-15T22:20:13.539Z,28.83
2024-01-15T22:22:41.925Z,28.90
2024-01-15T22:25:10.427Z,29.17
2024-01-15T22:27:38.121Z,29.47
2024-01-15T22:30:08.644Z,29.13
2024-01-15T22:32:35.501Z,26.17
2024-01-15T22:35:04.773Z,29.17
2024-01-15T22:37:32.704Z,29.80
2024-01-15T22:40:00.448Z,28.60
2024-01-15T22:42:28.524Z,28.13
2024-01-15T22:44:56.748Z,28.70
2024-01-15T22:47:24.744Z,27.60
2024-01-15T22:49:52.769Z,29.17
2024-01-15T22:52:21.737Z,26.47
2024-01-15T22:54:50.286Z,28.57
2024-01-15T22:57:18.167Z,27.13
2024-01-15T22:59:46.420Z,26.03
2024-01-15T23:02:14.319Z,26.40
2024-01-15T23:04:42.286Z,27.20
2024-01-15T23:07:09.922Z,27.53
2024-01-15T23:09:39.294Z,26.50
2024-01-15T23:12:08.310Z,28.00
2024-01-15T23:14:36.861Z,26.97
2024-01-15T23:17:04.800Z,28.57
2024-01-15T23:19:32.531Z,28.00
2024-01-15T23:22:00.196Z,28.73
2024-01-15T23:24:28.025Z,28.53
2024-01-15T23:26:56.991Z,29.23
2024-01-15T23:29:24.756Z,29.97
2024-01-15T23:31:52.562Z,28.33
2024-01-15T23:34:20.491Z,28.73
2024-01-15T23:36:48.253Z,28.30
2024-01-15T23:39:15.865Z,28.53
2024-01-15T23:41:43.584Z,28.23
2024-01-15T23:44:12.846Z,27.27
2024-01-15T23:46:40.543Z,28.97
2024-01-15T23:49:08.294Z,26.93
2024-01-15T23:51:35.985Z,27.30
2024-01-15T23:54:04.209Z,27.53
2024-01-15T23:56:31.994Z,26.23
2024-01-15T23:58:59.793Z,27.70
